Terminal Aerodrome Forecast
Issued by NWS

Home | Current Version | Previous Version | Text Only | Print | Product List | Glossary On
Versions: 1 2 3 4 5 6 7 8 9 10 11 12 13 14 15
118
FTUS43 KDVN 241130
TAFCID
TAF
KCID 241130Z 2412/2512 21008KT P6SM SCT100 BKN200
      TEMPO 2412/2414 5SM BR
     FM241800 28009KT P6SM BKN035
     FM242100 30010KT P6SM BKN250
     FM250000 31005KT P6SM SCT250=

USA.gov is the U.S. government's official web portal to all federal, state and local government web resources and services.